sensor_id;sensor_type;location;lat;lon;timestamp;P1;durP1;ratioP1;P2;durP2;ratioP2
8885;SDS011;4479;51.162;13.906;2022-08-16T00:09:02;6.00;;;4.83;;
8885;SDS011;4479;51.162;13.906;2022-08-16T00:19:06;6.57;;;4.70;;
8885;SDS011;4479;51.162;13.906;2022-08-16T00:29:12;5.60;;;4.93;;
8885;SDS011;4479;51.162;13.906;2022-08-16T00:39:17;5.33;;;4.60;;
8885;SDS011;4479;51.162;13.906;2022-08-16T00:49:23;4.67;;;4.27;;
8885;SDS011;4479;51.162;13.906;2022-08-16T00:59:28;4.77;;;4.37;;
8885;SDS011;4479;51.162;13.906;2022-08-16T01:09:37;4.47;;;4.07;;
8885;SDS011;4479;51.162;13.906;2022-08-16T01:19:43;5.27;;;4.87;;
8885;SDS011;4479;51.162;13.906;2022-08-16T01:29:54;5.40;;;4.93;;
8885;SDS011;4479;51.162;13.906;2022-08-16T01:40:03;5.17;;;4.67;;
8885;SDS011;4479;51.162;13.906;2022-08-16T01:50:09;5.37;;;4.87;;
8885;SDS011;4479;51.162;13.906;2022-08-16T02:00:14;5.97;;;4.90;;
8885;SDS011;4479;51.162;13.906;2022-08-16T02:10:20;5.33;;;4.83;;
8885;SDS011;4479;51.162;13.906;2022-08-16T02:20:27;5.57;;;5.07;;
8885;SDS011;4479;51.162;13.906;2022-08-16T02:30:34;6.10;;;5.60;;
8885;SDS011;4479;51.162;13.906;2022-08-16T02:40:38;7.93;;;5.57;;
8885;SDS011;4479;51.162;13.906;2022-08-16T02:50:43;5.50;;;5.00;;
8885;SDS011;4479;51.162;13.906;2022-08-16T03:00:47;6.30;;;4.97;;
8885;SDS011;4479;51.162;13.906;2022-08-16T03:10:52;6.00;;;5.10;;
8885;SDS011;4479;51.162;13.906;2022-08-16T03:20:58;5.83;;;4.67;;
8885;SDS011;4479;51.162;13.906;2022-08-16T03:31:07;5.80;;;4.80;;
8885;SDS011;4479;51.162;13.906;2022-08-16T03:41:10;5.80;;;5.00;;
8885;SDS011;4479;51.162;13.906;2022-08-16T03:51:16;6.97;;;4.90;;
8885;SDS011;4479;51.162;13.906;2022-08-16T04:01:25;5.27;;;4.77;;
8885;SDS011;4479;51.162;13.906;2022-08-16T04:11:31;6.10;;;5.60;;
8885;SDS011;4479;51.162;13.906;2022-08-16T04:21:35;6.00;;;4.70;;
8885;SDS011;4479;51.162;13.906;2022-08-16T04:31:40;5.80;;;5.20;;
8885;SDS011;4479;51.162;13.906;2022-08-16T04:41:43;5.40;;;4.63;;
8885;SDS011;4479;51.162;13.906;2022-08-16T04:51:48;6.23;;;5.20;;
8885;SDS011;4479;51.162;13.906;2022-08-16T05:01:51;5.20;;;4.80;;
8885;SDS011;4479;51.162;13.906;2022-08-16T05:11:57;4.70;;;4.27;;
8885;SDS011;4479;51.162;13.906;2022-08-16T05:22:01;4.17;;;3.77;;
8885;SDS011;4479;51.162;13.906;2022-08-16T05:32:07;3.70;;;3.40;;
8885;SDS011;4479;51.162;13.906;2022-08-16T05:42:11;3.40;;;3.20;;
8885;SDS011;4479;51.162;13.906;2022-08-16T05:52:17;3.40;;;2.90;;
8885;SDS011;4479;51.162;13.906;2022-08-16T06:02:22;3.37;;;3.07;;
8885;SDS011;4479;51.162;13.906;2022-08-16T06:12:29;2.97;;;2.77;;
8885;SDS011;4479;51.162;13.906;2022-08-16T06:22:37;2.63;;;2.43;;
8885;SDS011;4479;51.162;13.906;2022-08-16T06:32:44;3.87;;;2.53;;
8885;SDS011;4479;51.162;13.906;2022-08-16T06:42:49;4.50;;;2.53;;
8885;SDS011;4479;51.162;13.906;2022-08-16T06:53:10;3.57;;;2.80;;
8885;SDS011;4479;51.162;13.906;2022-08-16T07:03:24;3.13;;;2.77;;
8885;SDS011;4479;51.162;13.906;2022-08-16T07:13:29;4.57;;;2.70;;
8885;SDS011;4479;51.162;13.906;2022-08-16T07:23:34;3.10;;;2.80;;
8885;SDS011;4479;51.162;13.906;2022-08-16T07:33:40;2.87;;;2.67;;
8885;SDS011;4479;51.162;13.906;2022-08-16T07:43:45;4.97;;;2.67;;
8885;SDS011;4479;51.162;13.906;2022-08-16T07:53:52;2.63;;;2.43;;
8885;SDS011;4479;51.162;13.906;2022-08-16T08:03:56;3.23;;;2.93;;
8885;SDS011;4479;51.162;13.906;2022-08-16T08:14:09;5.20;;;2.47;;
8885;SDS011;4479;51.162;13.906;2022-08-16T08:24:18;2.60;;;2.40;;
8885;SDS011;4479;51.162;13.906;2022-08-16T08:34:24;2.70;;;2.50;;
8885;SDS011;4479;51.162;13.906;2022-08-16T08:44:28;3.03;;;2.83;;
8885;SDS011;4479;51.162;13.906;2022-08-16T08:54:48;2.90;;;2.63;;
8885;SDS011;4479;51.162;13.906;2022-08-16T09:04:52;2.83;;;2.63;;
8885;SDS011;4479;51.162;13.906;2022-08-16T09:14:58;3.33;;;2.73;;
8885;SDS011;4479;51.162;13.906;2022-08-16T09:25:04;2.60;;;2.40;;
8885;SDS011;4479;51.162;13.906;2022-08-16T09:35:10;2.83;;;2.57;;
8885;SDS011;4479;51.162;13.906;2022-08-16T09:45:14;2.87;;;2.67;;
8885;SDS011;4479;51.162;13.906;2022-08-16T09:55:20;2.50;;;2.30;;
8885;SDS011;4479;51.162;13.906;2022-08-16T10:05:24;2.13;;;2.03;;
8885;SDS011;4479;51.162;13.906;2022-08-16T10:15:29;2.63;;;2.40;;
8885;SDS011;4479;51.162;13.906;2022-08-16T10:25:35;2.53;;;2.33;;
8885;SDS011;4479;51.162;13.906;2022-08-16T10:35:43;2.70;;;2.07;;
8885;SDS011;4479;51.162;13.906;2022-08-16T10:45:48;2.50;;;2.10;;
8885;SDS011;4479;51.162;13.906;2022-08-16T10:55:57;2.27;;;2.00;;
8885;SDS011;4479;51.162;13.906;2022-08-16T11:06:03;2.10;;;1.87;;
8885;SDS011;4479;51.162;13.906;2022-08-16T11:16:09;2.30;;;2.00;;
8885;SDS011;4479;51.162;13.906;2022-08-16T11:26:13;2.07;;;1.87;;
8885;SDS011;4479;51.162;13.906;2022-08-16T11:36:18;2.20;;;2.00;;
8885;SDS011;4479;51.162;13.906;2022-08-16T11:46:23;3.03;;;1.90;;
8885;SDS011;4479;51.162;13.906;2022-08-16T11:56:29;3.23;;;2.40;;
8885;SDS011;4479;51.162;13.906;2022-08-16T12:06:33;2.83;;;2.10;;
8885;SDS011;4479;51.162;13.906;2022-08-16T12:16:38;2.40;;;2.20;;
8885;SDS011;4479;51.162;13.906;2022-08-16T12:26:42;2.30;;;2.13;;
8885;SDS011;4479;51.162;13.906;2022-08-16T12:36:48;2.50;;;2.10;;
8885;SDS011;4479;51.162;13.906;2022-08-16T12:46:51;3.13;;;1.90;;
8885;SDS011;4479;51.162;13.906;2022-08-16T12:57:13;2.40;;;2.17;;
8885;SDS011;4479;51.162;13.906;2022-08-16T13:07:17;3.33;;;2.07;;
8885;SDS011;4479;51.162;13.906;2022-08-16T13:17:24;2.33;;;2.13;;
8885;SDS011;4479;51.162;13.906;2022-08-16T13:27:28;2.13;;;2.03;;
8885;SDS011;4479;51.162;13.906;2022-08-16T13:37:33;2.93;;;2.10;;
8885;SDS011;4479;51.162;13.906;2022-08-16T13:47:36;2.57;;;2.33;;
8885;SDS011;4479;51.162;13.906;2022-08-16T13:57:41;2.40;;;2.20;;
8885;SDS011;4479;51.162;13.906;2022-08-16T14:07:44;2.70;;;2.50;;
8885;SDS011;4479;51.162;13.906;2022-08-16T14:17:49;3.50;;;2.27;;
8885;SDS011;4479;51.162;13.906;2022-08-16T14:27:52;2.40;;;2.20;;
8885;SDS011;4479;51.162;13.906;2022-08-16T14:37:57;2.93;;;2.00;;
8885;SDS011;4479;51.162;13.906;2022-08-16T14:48:00;2.50;;;2.30;;
8885;SDS011;4479;51.162;13.906;2022-08-16T14:58:05;3.57;;;2.27;;
8885;SDS011;4479;51.162;13.906;2022-08-16T15:08:08;2.53;;;2.20;;
8885;SDS011;4479;51.162;13.906;2022-08-16T15:18:12;2.50;;;2.30;;
8885;SDS011;4479;51.162;13.906;2022-08-16T15:28:15;2.23;;;2.00;;
8885;SDS011;4479;51.162;13.906;2022-08-16T15:38:19;2.70;;;2.50;;
8885;SDS011;4479;51.162;13.906;2022-08-16T15:48:22;2.77;;;2.10;;
8885;SDS011;4479;51.162;13.906;2022-08-16T15:58:28;1.93;;;1.83;;
8885;SDS011;4479;51.162;13.906;2022-08-16T16:08:31;2.43;;;2.23;;
8885;SDS011;4479;51.162;13.906;2022-08-16T16:18:36;2.17;;;1.97;;
8885;SDS011;4479;51.162;13.906;2022-08-16T16:28:38;1.90;;;1.80;;
8885;SDS011;4479;51.162;13.906;2022-08-16T16:38:43;2.93;;;1.87;;
8885;SDS011;4479;51.162;13.906;2022-08-16T16:48:47;2.10;;;1.90;;
8885;SDS011;4479;51.162;13.906;2022-08-16T16:58:53;3.57;;;2.67;;
8885;SDS011;4479;51.162;13.906;2022-08-16T17:08:58;3.40;;;2.07;;
8885;SDS011;4479;51.162;13.906;2022-08-16T17:19:08;3.03;;;2.23;;
8885;SDS011;4479;51.162;13.906;2022-08-16T17:29:15;2.73;;;2.10;;
8885;SDS011;4479;51.162;13.906;2022-08-16T17:39:24;2.73;;;1.70;;
8885;SDS011;4479;51.162;13.906;2022-08-16T17:49:31;1.93;;;1.77;;
8885;SDS011;4479;51.162;13.906;2022-08-16T17:59:41;1.93;;;1.83;;
8885;SDS011;4479;51.162;13.906;2022-08-16T18:09:50;1.80;;;1.70;;
8885;SDS011;4479;51.162;13.906;2022-08-16T18:19:56;1.80;;;1.70;;
8885;SDS011;4479;51.162;13.906;2022-08-16T18:30:02;2.23;;;1.90;;
8885;SDS011;4479;51.162;13.906;2022-08-16T18:40:09;2.93;;;1.70;;
8885;SDS011;4479;51.162;13.906;2022-08-16T18:50:14;2.33;;;2.10;;
8885;SDS011;4479;51.162;13.906;2022-08-16T19:00:21;3.27;;;2.00;;
8885;SDS011;4479;51.162;13.906;2022-08-16T19:10:29;3.13;;;1.97;;
8885;SDS011;4479;51.162;13.906;2022-08-16T19:20:40;2.37;;;1.73;;
8885;SDS011;4479;51.162;13.906;2022-08-16T19:30:46;2.23;;;1.90;;
8885;SDS011;4479;51.162;13.906;2022-08-16T19:40:50;2.40;;;1.87;;
8885;SDS011;4479;51.162;13.906;2022-08-16T19:50:53;4.07;;;1.87;;
8885;SDS011;4479;51.162;13.906;2022-08-16T20:00:57;2.77;;;1.73;;
8885;SDS011;4479;51.162;13.906;2022-08-16T20:11:00;2.10;;;1.87;;
8885;SDS011;4479;51.162;13.906;2022-08-16T20:21:04;4.80;;;1.83;;
8885;SDS011;4479;51.162;13.906;2022-08-16T20:31:08;2.00;;;1.90;;
8885;SDS011;4479;51.162;13.906;2022-08-16T20:41:13;2.17;;;1.97;;
8885;SDS011;4479;51.162;13.906;2022-08-16T20:51:18;3.73;;;2.17;;
8885;SDS011;4479;51.162;13.906;2022-08-16T21:01:23;5.17;;;2.30;;
8885;SDS011;4479;51.162;13.906;2022-08-16T21:11:27;4.73;;;2.47;;
8885;SDS011;4479;51.162;13.906;2022-08-16T21:21:36;3.43;;;2.23;;
8885;SDS011;4479;51.162;13.906;2022-08-16T21:31:39;2.17;;;2.03;;
8885;SDS011;4479;51.162;13.906;2022-08-16T21:41:45;3.47;;;2.27;;
8885;SDS011;4479;51.162;13.906;2022-08-16T21:51:48;2.07;;;1.97;;
8885;SDS011;4479;51.162;13.906;2022-08-16T22:01:53;2.40;;;2.20;;
8885;SDS011;4479;51.162;13.906;2022-08-16T22:11:57;3.13;;;2.13;;
8885;SDS011;4479;51.162;13.906;2022-08-16T22:22:02;7.10;;;2.17;;
8885;SDS011;4479;51.162;13.906;2022-08-16T22:32:06;5.93;;;2.83;;
8885;SDS011;4479;51.162;13.906;2022-08-16T22:42:12;3.43;;;2.30;;
8885;SDS011;4479;51.162;13.906;2022-08-16T22:52:15;2.33;;;2.13;;
8885;SDS011;4479;51.162;13.906;2022-08-16T23:02:21;4.23;;;2.50;;
8885;SDS011;4479;51.162;13.906;2022-08-16T23:12:25;2.40;;;2.23;;
8885;SDS011;4479;51.162;13.906;2022-08-16T23:22:39;2.87;;;2.67;;
8885;SDS011;4479;51.162;13.906;2022-08-16T23:32:45;3.87;;;2.40;;
8885;SDS011;4479;51.162;13.906;2022-08-16T23:42:54;3.00;;;2.63;;
8885;SDS011;4479;51.162;13.906;2022-08-16T23:53:02;3.20;;;2.50;;
